Time;durP1;ratioP1;P1;durP2;ratioP2;P2;SDS_P1;SDS_P2;PMS_P1;PMS_P2;Temp;Humidity;BMP_temperature;BMP_pressure;BME280_temperature;BME280_humidity;BME280_pressure;Samples;Min_cycle;Max_cycle;Signal;HPM_P1;HPM_P2
2022/10/17 00:02:38;;;;;;;0.15;0.15;;;;;;;18.14;56.21;94117.44;5096870;28;20038;-90
2022/10/17 00:08:25;;;;;;;0.30;0.20;;;;;;;18.15;56.06;94118.94;5116348;27;20089;-90
2022/10/17 00:14:12;;;;;;;0.20;0.20;;;;;;;18.15;56.20;94118.19;5097132;27;20047;-90
2022/10/17 00:20:00;;;;;;;0.35;0.30;;;;;;;18.15;56.44;94127.16;5116899;28;20093;-90
2022/10/17 00:25:57;;;;;;;0.22;0.22;;;;;;;18.13;56.05;94123.41;5116326;28;20055;-90
2022/10/17 00:28:22;;;;;;;0.10;0.10;;;;;;;18.13;55.79;94115.19;5061461;28;20043;-90
2022/10/17 00:34:09;;;;;;;0.20;0.20;;;;;;;18.13;55.97;94110.47;5098889;28;20043;-90
2022/10/17 00:39:56;;;;;;;0.20;0.20;;;;;;;18.15;56.37;94118.94;5116462;28;20454;-90
2022/10/17 00:45:43;;;;;;;;;;;;;;;18.17;55.69;94117.69;5096651;28;20050;-90
2022/10/17 00:51:33;;;;;;;1.33;0.38;;;;;;;18.13;55.91;94115.19;5095327;28;20529;-90
2022/10/17 00:57:20;;;;;;;0.40;0.28;;;;;;;18.13;55.99;94099.53;5097603;28;20493;-90
2022/10/17 01:03:07;;;;;;;0.20;0.20;;;;;;;18.12;56.21;94106.22;5095842;28;20508;-89
2022/10/17 01:08:55;;;;;;;0.28;0.25;;;;;;;18.13;56.03;94113.22;5115574;27;20059;-90
2022/10/17 01:15:01;;;;;;;0.22;0.20;;;;;;;18.14;55.85;94113.94;5095657;28;20054;-90
2022/10/17 01:21:15;;;;;;;0.13;0.13;;;;;;;18.13;56.31;94107.72;5115344;28;20097;-90
2022/10/17 01:27:08;;;;;;;0.17;0.17;;;;;;;18.12;55.97;94103.50;5094458;28;20046;-91
2022/10/17 01:32:56;;;;;;;0.32;0.30;;;;;;;18.14;56.01;94100.28;5115452;28;20055;-91
2022/10/17 01:38:48;;;;;;;0.20;0.20;;;;;;;18.12;56.15;94108.97;5100835;28;20043;-90
2022/10/17 01:44:41;;;;;;;0.30;0.25;;;;;;;18.11;55.83;94104.00;5094975;28;20043;-90
2022/10/17 01:50:31;;;;;;;0.22;0.22;;;;;;;18.10;55.81;94102.50;5094424;28;20089;-90
2022/10/17 01:56:18;;;;;;;0.30;0.30;;;;;;;18.11;55.91;94099.25;5096527;28;20074;-90
2022/10/17 02:02:06;;;;;;;0.10;0.10;;;;;;;18.12;55.71;94103.50;5094377;28;20069;-90
2022/10/17 02:07:53;;;;;;;0.57;0.20;;;;;;;18.11;55.89;94104.75;5114800;28;20096;-90
2022/10/17 02:14:13;;;;;;;0.20;0.20;;;;;;;18.11;56.21;94095.78;5113262;28;20405;-90
2022/10/17 02:17:07;;;;;;;0.20;0.20;;;;;;;18.10;56.10;94097.03;5070422;28;20032;-90
2022/10/17 02:22:57;;;;;;;0.20;0.20;;;;;;;18.10;55.86;94092.28;5114655;28;20104;-90
2022/10/17 02:29:03;;;;;;;0.60;0.30;;;;;;;18.10;56.09;94097.78;5088477;28;20458;-90
2022/10/17 02:31:32;;;;;;;0.50;0.20;;;;;;;18.09;55.76;94107.22;5096244;28;20040;-90
2022/10/17 02:37:22;;;;;;;0.57;0.30;;;;;;;18.10;55.84;94095.03;5113932;28;20038;-90
2022/10/17 02:43:09;;;;;;;0.47;0.43;;;;;;;18.10;55.74;94097.03;5094593;28;20089;-90
2022/10/17 02:49:20;;;;;;;0.40;0.32;;;;;;;18.11;55.93;94104.00;5114603;28;20153;-90
2022/10/17 02:55:24;;;;;;;0.45;0.40;;;;;;;18.10;55.86;94105.22;5094643;28;20075;-89
2022/10/17 03:01:11;;;;;;;0.35;0.30;;;;;;;18.09;55.89;94106.47;5094556;28;20137;-90
2022/10/17 03:06:58;;;;;;;0.20;0.20;;;;;;;18.11;55.80;94109.47;5114040;28;20105;-90
2022/10/17 03:12:45;;;;;;;0.20;0.20;;;;;;;18.09;55.91;94111.94;5093448;28;20071;-90
2022/10/17 03:18:32;;;;;;;0.30;0.28;;;;;;;18.10;55.67;94113.44;5101350;28;20085;-90
2022/10/17 03:24:19;;;;;;;0.30;0.30;;;;;;;18.09;56.39;94112.69;5095748;28;20499;-90
2022/10/17 03:30:07;;;;;;;0.45;0.30;;;;;;;18.09;55.96;94120.16;5098418;28;20050;-90
2022/10/17 03:32:32;;;;;;;0.22;0.20;;;;;;;18.09;55.62;94115.41;5095873;28;20039;-90
2022/10/17 03:38:20;;;;;;;0.22;0.20;;;;;;;18.10;56.08;94127.88;5100278;28;20047;-89
2022/10/17 03:44:07;;;;;;;0.60;0.40;;;;;;;18.12;55.89;94121.91;5097527;28;20051;-88
2022/10/17 03:49:54;;;;;;;1.15;0.30;;;;;;;18.12;56.14;94124.63;5117357;27;20508;-89
2022/10/17 03:55:41;;;;;;;1.45;0.40;;;;;;;18.14;55.73;94122.16;5098750;28;20178;-88
2022/10/17 04:01:28;;;;;;;0.38;0.38;;;;;;;18.13;55.98;94126.13;5096304;28;20031;-88
2022/10/17 04:07:15;;;;;;;0.30;0.30;;;;;;;18.14;55.67;94124.91;5097779;28;20467;-89
2022/10/17 04:13:02;;;;;;;0.30;0.30;;;;;;;18.12;56.05;94124.63;5116806;27;20088;-88
2022/10/17 04:18:56;;;;;;;3.47;1.00;;;;;;;18.04;54.68;94126.34;5116961;28;20080;-89
2022/10/17 04:24:43;;;;;;;1.55;1.02;;;;;;;18.08;54.85;94135.81;5103666;28;20047;-90
2022/10/17 04:30:30;;;;;;;21.92;12.57;;;;;;;18.08;54.60;94141.28;5106530;28;20410;-90
2022/10/17 04:32:56;;;;;;;3.97;2.42;;;;;;;18.05;54.11;94144.25;5079449;28;20064;-88
2022/10/17 04:38:43;;;;;;;6.00;2.13;;;;;;;18.09;54.33;94147.50;5126857;28;20050;-91
2022/10/17 04:44:32;;;;;;;15.55;11.82;;;;;;;18.18;54.47;94144.56;5110118;28;20043;-89
2022/10/17 04:50:19;;;;;;;34.00;14.30;;;;;;;18.18;54.35;94141.84;5102532;28;20089;-90
2022/10/17 04:56:17;;;;;;;29.50;13.63;;;;;;;18.17;54.79;94142.31;5096766;28;20043;-90
2022/10/17 05:02:04;;;;;;;30.40;9.95;;;;;;;18.13;54.78;94146.03;5099872;28;20105;-89
2022/10/17 05:07:52;;;;;;;36.97;14.40;;;;;;;18.16;54.04;94136.09;5098820;28;20398;-91
2022/10/17 05:13:39;;;;;;;31.52;13.32;;;;;;;18.11;53.38;94145.78;5099381;28;20081;-90
2022/10/17 05:19:26;;;;;;;24.48;8.82;;;;;;;18.09;52.16;94145.53;5118311;28;20508;-91
2022/10/17 05:25:13;;;;;;;37.45;12.77;;;;;;;18.04;52.04;94148.22;5119976;28;20118;-88
2022/10/17 05:31:04;;;;;;;22.33;11.02;;;;;;;18.02;51.83;94142.50;5091619;28;20144;-91
2022/10/17 05:33:29;;;;;;;15.43;9.00;;;;;;;18.01;51.60;94138.25;5097556;28;20044;-90
2022/10/17 05:39:18;;;;;;;17.58;8.15;;;;;;;17.99;50.99;94151.66;5097640;28;20074;-90
2022/10/17 05:45:06;;;;;;;38.85;11.38;;;;;;;17.97;51.07;94146.69;5095697;28;20063;-91
2022/10/17 05:50:57;;;;;;;42.78;20.20;;;;;;;17.99;51.29;94162.63;5097631;28;20047;-89
2022/10/17 05:56:44;;;;;;;58.28;18.00;;;;;;;17.96;51.26;94161.63;5095777;28;20117;-92
2022/10/17 06:02:32;;;;;;;102.85;32.10;;;;;;;17.96;51.52;94174.56;5099230;28;20035;-92
2022/10/17 06:08:19;;;;;;;75.57;31.88;;;;;;;18.01;51.88;94180.03;5116935;28;20121;-91
2022/10/17 06:14:07;;;;;;;59.78;26.85;;;;;;;18.08;51.42;94184.31;5096473;28;20069;-89
2022/10/17 06:19:53;;;;;;;;;;;;;;;18.14;51.12;94187.84;5115889;28;20556;-89
2022/10/17 06:25:41;;;;;;;37.97;19.65;;;;;;;18.14;51.02;94196.03;5114446;28;20262;-90
2022/10/17 06:31:28;;;;;;;56.78;21.55;;;;;;;18.13;50.89;94200.00;5108649;28;20414;-89
2022/10/17 06:33:53;;;;;;;55.08;19.55;;;;;;;18.17;50.94;94197.81;5062177;28;20043;-89
2022/10/17 06:39:40;;;;;;;81.78;22.48;;;;;;;18.18;51.19;94204.78;5115844;28;20047;-88
2022/10/17 06:45:27;;;;;;;;;;;;;;;18.22;51.77;94210.75;5112260;28;20046;-89
2022/10/17 06:51:14;;;;;;;63.90;18.63;;;;;;;18.22;51.69;94215.47;5096771;28;20326;-90
2022/10/17 06:57:01;;;;;;;106.88;45.42;;;;;;;18.22;51.68;94216.22;5094675;28;20158;-90
2022/10/17 07:02:48;;;;;;;80.25;35.45;;;;;;;18.28;51.65;94213.50;5114314;28;20046;-89
2022/10/17 07:08:36;;;;;;;95.65;32.50;;;;;;;18.30;51.78;94220.00;5105176;28;20062;-91
2022/10/17 07:14:30;;;;;;;73.80;30.25;;;;;;;18.34;51.98;94227.97;5118891;28;20046;-90
2022/10/17 07:20:18;;;;;;;48.30;20.60;;;;;;;18.36;52.19;94228.25;5104491;28;20039;-92
2022/10/17 07:26:09;;;;;;;46.85;20.70;;;;;;;18.34;52.21;94236.19;5104109;28;20416;-91
2022/10/17 07:31:56;;;;;;;96.88;35.13;;;;;;;18.41;52.34;94239.19;5102462;28;20078;-91
2022/10/17 07:34:26;;;;;;;182.57;62.22;;;;;;;18.43;52.25;94235.97;5087694;28;20048;-90
2022/10/17 07:40:13;;;;;;;257.65;96.05;;;;;;;18.44;52.55;94235.47;5093961;28;20089;-91
2022/10/17 07:46:01;;;;;;;256.77;91.70;;;;;;;18.49;52.14;94234.00;5100824;28;20067;-92
2022/10/17 07:51:49;;;;;;;202.95;70.95;;;;;;;18.50;52.01;94241.75;5104106;28;20051;-90
2022/10/17 07:57:36;;;;;;;165.20;68.97;;;;;;;18.54;52.08;94247.00;5100283;28;20061;-91
2022/10/17 08:03:23;;;;;;;157.00;63.63;;;;;;;18.56;52.27;94254.72;5119848;27;20112;-92
2022/10/17 08:09:10;;;;;;;155.68;61.13;;;;;;;18.58;52.22;94247.50;5099810;28;20046;-89
2022/10/17 08:14:57;;;;;;;168.77;85.30;;;;;;;18.58;52.08;94255.72;5098160;28;20521;-89
2022/10/17 08:20:47;;;;;;;194.52;97.10;;;;;;;18.63;52.33;94251.53;5101083;28;20489;-93
2022/10/17 08:26:38;;;;;;;196.60;105.72;;;;;;;18.61;52.02;94249.28;5105509;28;20051;-93
2022/10/17 08:32:28;;;;;;;202.45;109.97;;;;;;;18.66;52.20;94256.00;5099918;28;20047;-94
2022/10/17 08:34:54;;;;;;;213.25;109.75;;;;;;;18.69;51.71;94241.34;5085338;23;20060;-92
2022/10/17 08:40:41;;;;;;;207.70;105.97;;;;;;;18.69;51.90;94247.56;5046494;28;20032;-92
2022/10/17 08:46:30;;;;;;;193.23;107.03;;;;;;;18.72;51.81;94238.38;5038273;28;20086;-90
2022/10/17 08:55:04;;;;;;;117.43;64.13;;;;;;;18.86;49.82;94235.91;3331865;22;20339;-93
2022/10/17 09:01:16;;;;;;;103.82;56.30;;;;;;;18.87;50.33;94234.66;4994388;28;20122;-93
2022/10/17 09:07:31;;;;;;;70.38;32.72;;;;;;;18.94;49.56;94236.94;5037636;28;20443;-91
2022/10/17 09:10:14;;;;;;;86.30;46.55;;;;;;;18.92;49.87;94242.91;5047226;22;20042;-91
2022/10/17 09:12:43;;;;;;;85.65;48.20;;;;;;;18.90;50.08;94233.69;5048067;28;20504;-90
2022/10/17 09:15:30;;;;;;;221.00;126.35;;;;;;;18.90;50.10;94236.44;5038540;22;20064;-91
2022/10/17 09:18:27;;;;;;;230.02;130.15;;;;;;;18.94;50.10;94248.66;5048682;28;20041;-91
2022/10/17 09:24:26;;;;;;;287.55;147.18;;;;;;;18.98;50.27;94240.94;5033661;28;20056;-90
2022/10/17 09:30:14;;;;;;;128.38;62.85;;;;;;;19.07;48.34;94243.44;5088116;28;20085;-88
2022/10/17 09:36:03;;;;;;;219.45;93.57;;;;;;;19.08;49.57;94249.66;5080673;28;20105;-92
2022/10/17 09:41:55;;;;;;;224.13;96.35;;;;;;;19.04;50.17;94247.19;5098035;28;20463;-93
2022/10/17 09:47:46;;;;;;;231.77;99.35;;;;;;;19.02;50.25;94241.47;5099443;28;20046;-92
2022/10/17 09:53:35;;;;;;;202.57;90.55;;;;;;;19.00;50.29;94243.19;5073538;28;20034;-93
2022/10/17 09:59:30;;;;;;;;;;;;;;;18.96;50.65;94250.91;5052509;28;22440;-92
2022/10/17 10:05:20;;;;;;;187.63;82.00;;;;;;;19.00;50.64;94259.63;5075864;28;20108;-93
2022/10/17 10:11:11;;;;;;;130.55;66.40;;;;;;;18.96;50.63;94246.16;5079983;28;20056;-93
2022/10/17 10:16:58;;;;;;;110.60;60.38;;;;;;;19.00;52.25;94252.16;5067063;28;20036;-89
2022/10/17 10:19:26;;;;;;;426.27;329.63;;;;;;;19.00;50.57;94257.66;5039229;28;20040;-89
2022/10/17 10:25:15;;;;;;;772.95;680.70;;;;;;;19.00;50.90;94243.94;5082366;28;20530;-90
2022/10/17 10:31:04;;;;;;;105.68;62.83;;;;;;;19.02;50.37;94246.19;5089968;28;20098;-89
2022/10/17 10:37:04;;;;;;;790.28;706.72;;;;;;;19.01;50.80;94256.41;5095768;28;20122;-91
2022/10/17 10:42:54;;;;;;;67.40;44.90;;;;;;;19.01;50.37;94259.16;5074370;28;20122;-91
2022/10/17 10:48:57;;;;;;;63.42;37.35;;;;;;;19.02;50.36;94254.41;5090314;28;20036;-90
2022/10/17 10:54:56;;;;;;;58.97;36.75;;;;;;;19.00;50.07;94243.94;5104280;28;20098;-90
2022/10/17 11:00:44;;;;;;;168.82;98.90;;;;;;;19.04;50.11;94251.94;5104228;28;20071;-89
2022/10/17 11:06:34;;;;;;;182.93;91.47;;;;;;;19.02;50.13;94255.16;5086829;28;20055;-90
2022/10/17 11:12:35;;;;;;;207.10;111.03;;;;;;;19.00;50.21;94265.13;5092840;28;20074;-90
2022/10/17 11:18:35;;;;;;;256.15;118.28;;;;;;;19.04;49.95;94249.19;5086552;28;20055;-88
2022/10/17 11:21:09;;;;;;;265.45;117.20;;;;;;;19.06;50.14;94252.91;5080404;28;20044;-89
2022/10/17 11:27:01;;;;;;;207.55;106.18;;;;;;;19.02;49.90;94246.94;5085262;28;20043;-89
2022/10/17 11:32:53;;;;;;;194.25;99.35;;;;;;;19.05;49.80;94247.94;5092741;22;20051;-91
2022/10/17 11:38:49;;;;;;;148.50;78.72;;;;;;;19.06;49.71;94246.69;5078720;28;20051;-91
2022/10/17 11:44:37;;;;;;;159.13;82.85;;;;;;;19.06;49.96;94252.16;5079893;28;20044;-91
2022/10/17 11:50:28;;;;;;;126.15;68.47;;;;;;;19.07;49.88;94246.19;5080470;28;20098;-92
2022/10/17 11:56:18;;;;;;;103.85;61.90;;;;;;;19.09;49.82;94238.22;5082496;28;20047;-91
2022/10/17 12:02:14;;;;;;;134.88;77.40;;;;;;;19.09;49.82;94232.00;5079193;28;20493;-91
2022/10/17 12:08:08;;;;;;;136.18;76.25;;;;;;;19.09;49.14;94223.75;5068795;28;20119;-92
2022/10/17 12:13:55;;;;;;;275.27;150.27;;;;;;;19.09;49.77;94223.75;5079303;28;20051;-91
2022/10/17 12:19:42;;;;;;;382.08;175.23;;;;;;;19.12;49.60;94222.78;5079670;28;20040;-88
2022/10/17 12:25:32;;;;;;;411.05;198.10;;;;;;;19.13;49.64;94219.53;5078604;28;20044;-90
2022/10/17 12:31:20;;;;;;;364.60;185.05;;;;;;;19.21;51.17;94230.03;5076924;28;20067;-88
2022/10/17 12:37:10;;;;;;;306.60;160.88;;;;;;;19.31;50.73;94234.00;5076210;28;20085;-88
2022/10/17 12:42:57;;;;;;;278.50;147.02;;;;;;;19.36;49.95;94233.28;5077149;28;20067;-89
2022/10/17 12:48:44;;;;;;;229.07;117.30;;;;;;;19.39;49.41;94241.25;5077617;28;20049;-90
2022/10/17 12:54:39;;;;;;;188.07;100.93;;;;;;;19.34;49.70;94239.25;5079690;28;20048;-89
2022/10/17 13:00:52;;;;;;;174.23;96.35;;;;;;;19.34;49.78;94244.00;5077831;28;20048;-89
2022/10/17 13:06:46;;;;;;;218.07;107.53;;;;;;;19.29;49.77;94241.97;5078170;28;20121;-91
2022/10/17 13:12:35;;;;;;;210.10;101.35;;;;;;;19.32;49.86;94241.75;5077626;28;20047;-89
2022/10/17 13:18:24;;;;;;;222.77;93.53;;;;;;;19.36;49.93;94244.25;5078849;28;20120;-89
2022/10/17 13:24:32;;;;;;;195.35;81.90;;;;;;;19.27;50.10;94244.50;5078223;28;20481;-90
2022/10/17 13:30:27;;;;;;;186.30;84.47;;;;;;;19.28;50.34;94240.50;5077874;28;20046;-89
2022/10/17 13:32:53;;;;;;;149.02;72.10;;;;;;;19.29;50.29;94250.97;5039696;28;20495;-90
2022/10/17 13:38:40;;;;;;;186.40;77.72;;;;;;;19.33;50.45;94254.22;5056299;28;20171;-92
2022/10/17 13:44:31;;;;;;;189.15;79.60;;;;;;;19.33;50.55;94237.75;5061721;28;20062;-90
2022/10/17 13:50:22;;;;;;;184.85;72.05;;;;;;;19.33;50.50;94240.50;5050028;28;20206;-91
2022/10/17 13:56:17;;;;;;;163.20;72.07;;;;;;;19.31;50.48;94236.75;5057266;28;20116;-92
2022/10/17 14:02:11;;;;;;;150.07;75.45;;;;;;;19.32;50.64;94243.75;5055689;28;20040;-90
2022/10/17 14:04:37;;;;;;;142.38;76.38;;;;;;;19.31;50.81;94236.75;5055793;22;20037;-90
2022/10/17 14:10:26;;;;;;;146.73;74.35;;;;;;;19.34;50.49;94247.47;5055891;28;20118;-90
2022/10/17 14:16:13;;;;;;;138.50;65.85;;;;;;;19.33;51.12;94247.97;5057968;28;20048;-90
2022/10/17 14:22:16;;;;;;;130.20;65.32;;;;;;;19.31;51.35;94253.94;5056805;28;20064;-90
2022/10/17 14:28:08;;;;;;;147.32;73.38;;;;;;;19.34;51.22;94246.72;5055966;28;20118;-90
2022/10/17 14:30:35;;;;;;;;;;;;;;;19.28;51.14;94252.19;5056329;28;20033;-88
2022/10/17 14:36:35;;;;;;;280.33;137.98;;;;;;;19.33;51.04;94258.94;5056716;28;20048;-89
2022/10/17 14:42:23;;;;;;;303.92;149.80;;;;;;;19.37;51.18;94264.94;5057930;28;20064;-93
2022/10/17 14:48:12;;;;;;;328.33;154.68;;;;;;;19.40;51.26;94258.47;5055909;28;20521;-90
2022/10/17 14:54:17;;;;;;;274.45;128.88;;;;;;;19.40;51.98;94264.69;5054332;28;20465;-88
2022/10/17 15:00:05;;;;;;;246.13;113.07;;;;;;;19.41;51.61;94260.72;5058223;28;20513;-93
2022/10/17 15:06:19;;;;;;;216.32;103.43;;;;;;;19.42;51.33;94277.91;5032787;28;20569;-91
2022/10/17 15:08:45;;;;;;;260.98;107.80;;;;;;;19.44;51.86;94264.47;5000142;28;20052;-88
2022/10/17 15:14:32;;;;;;;176.60;78.35;;;;;;;19.41;51.67;94276.41;5033187;28;20044;-90
2022/10/17 15:20:19;;;;;;;132.38;66.18;;;;;;;19.39;51.93;94274.16;5033590;28;20068;-88
2022/10/17 15:26:13;;;;;;;129.02;63.20;;;;;;;19.37;51.98;94275.91;5035103;28;20472;-90
2022/10/17 15:32:00;;;;;;;101.55;56.35;;;;;;;19.39;52.11;94281.66;5039390;28;20064;-90
2022/10/17 15:37:48;;;;;;;90.18;50.72;;;;;;;19.38;52.04;94280.16;5039567;28;20048;-90
2022/10/17 15:43:35;;;;;;;86.65;47.22;;;;;;;19.36;51.87;94285.38;5039172;28;20091;-90
2022/10/17 15:49:22;;;;;;;86.03;45.88;;;;;;;19.34;51.88;94277.63;5036863;28;22504;-90
2022/10/17 15:55:09;;;;;;;76.15;41.83;;;;;;;19.34;52.04;94285.13;5036341;28;20510;-90
2022/10/17 16:00:56;;;;;;;62.30;39.15;;;;;;;19.30;52.25;94290.84;5038596;28;20095;-89
2022/10/17 16:04:14;;;;;;;67.45;40.22;;;;;;;19.30;52.13;94296.31;5020101;28;20406;-90
2022/10/17 16:06:40;;;;;;;70.55;39.78;;;;;;;19.32;52.41;94287.59;5036834;28;20057;-89
2022/10/17 16:09:05;;;;;;;62.63;37.53;;;;;;;19.32;52.38;94284.88;5003208;28;20052;-90
2022/10/17 16:14:52;;;;;;;73.80;38.42;;;;;;;19.31;52.42;94297.81;5036992;28;20092;-90
2022/10/17 16:20:39;;;;;;;54.47;34.70;;;;;;;19.29;52.40;94294.81;5037798;28;20101;-91
2022/10/17 16:26:26;;;;;;;61.90;33.38;;;;;;;19.28;52.08;94296.06;5038384;28;20095;-91
2022/10/17 16:32:14;;;;;;;65.03;35.42;;;;;;;19.28;52.25;94301.53;5036148;28;20060;-91
2022/10/17 16:38:01;;;;;;;66.18;34.55;;;;;;;19.27;52.32;94304.81;5037431;28;20072;-91
2022/10/17 16:43:48;;;;;;;60.35;34.38;;;;;;;19.26;52.46;94309.53;5037524;28;20399;-90
2022/10/17 16:49:36;;;;;;;59.08;32.60;;;;;;;19.26;52.56;94314.28;5036195;28;20116;-91
2022/10/17 16:55:37;;;;;;;69.95;36.53;;;;;;;19.22;52.62;94320.00;5047528;28;20048;-90
2022/10/17 16:58:02;;;;;;;70.72;38.63;;;;;;;19.22;52.54;94322.72;5002705;28;20045;-91
2022/10/17 17:03:49;;;;;;;60.47;34.35;;;;;;;19.20;52.94;94327.22;5051473;28;20114;-90
2022/10/17 17:06:17;;;;;;;71.30;36.22;;;;;;;19.18;52.82;94325.72;5016675;28;20040;-91
2022/10/17 17:08:43;;;;;;;70.32;35.03;;;;;;;19.21;52.89;94334.19;5042738;28;20036;-91
2022/10/17 17:14:30;;;;;;;66.03;36.80;;;;;;;19.18;53.22;94342.16;5095292;28;20125;-89
2022/10/17 17:20:17;;;;;;;63.17;32.65;;;;;;;19.20;52.92;94336.19;5094747;28;20554;-90
2022/10/17 17:26:08;;;;;;;56.22;32.67;;;;;;;19.15;53.25;94334.91;5094882;28;20504;-90
2022/10/17 17:31:55;;;;;;;51.80;30.85;;;;;;;19.13;53.17;94334.66;5095528;28;20089;-90
2022/10/17 17:37:42;;;;;;;62.63;31.42;;;;;;;19.15;53.09;94342.38;5095032;28;20393;-90
2022/10/17 17:43:30;;;;;;;51.92;29.70;;;;;;;19.12;52.89;94343.38;5094843;28;20039;-91
2022/10/17 17:49:17;;;;;;;51.55;29.63;;;;;;;19.11;53.06;94350.09;5094555;28;20042;-90
2022/10/17 17:55:05;;;;;;;42.92;27.98;;;;;;;19.09;53.03;94345.09;5094602;28;20118;-90
2022/10/17 18:00:52;;;;;;;47.50;27.20;;;;;;;19.08;53.16;94340.84;5094872;28;20050;-90
2022/10/17 18:06:39;;;;;;;48.67;29.02;;;;;;;19.06;53.02;94346.06;5082550;28;20094;-90
2022/10/17 18:09:05;;;;;;;45.53;28.35;;;;;;;19.09;53.15;94344.34;5039415;28;20052;-91
2022/10/17 18:14:52;;;;;;;41.33;26.15;;;;;;;19.09;53.08;94358.81;5074128;28;20102;-91
2022/10/17 18:20:42;;;;;;;42.45;25.25;;;;;;;19.05;53.29;94354.81;5074343;28;20124;-90
2022/10/17 18:26:29;;;;;;;44.53;24.50;;;;;;;19.08;53.70;94356.56;5073685;28;20067;-90
2022/10/17 18:32:17;;;;;;;45.47;28.70;;;;;;;19.07;53.18;94353.06;5074449;28;20086;-90
2022/10/17 18:38:04;;;;;;;43.97;27.38;;;;;;;19.10;53.13;94351.34;5074057;28;20055;-91
2022/10/17 18:43:52;;;;;;;45.97;30.25;;;;;;;19.07;53.18;94352.31;5077893;28;20122;-90
2022/10/17 18:49:39;;;;;;;40.22;24.27;;;;;;;19.09;53.15;94350.59;5075258;28;20094;-90
2022/10/17 18:55:26;;;;;;;39.60;24.23;;;;;;;19.07;53.19;94352.31;5073588;28;20095;-90
2022/10/17 19:01:16;;;;;;;35.78;23.85;;;;;;;19.06;53.19;94353.56;5073865;28;20532;-91
2022/10/17 19:07:03;;;;;;;37.10;22.98;;;;;;;19.06;53.18;94353.56;5091989;28;20039;-91
2022/10/17 19:09:29;;;;;;;33.95;22.25;;;;;;;19.04;53.14;94362.28;5046973;28;20044;-91
2022/10/17 19:15:16;;;;;;;32.47;21.00;;;;;;;19.04;53.11;94358.81;5097441;28;20051;-91
2022/10/17 19:21:06;;;;;;;35.30;21.27;;;;;;;19.01;53.14;94363.28;5097288;28;20106;-91
2022/10/17 19:26:55;;;;;;;31.88;21.33;;;;;;;18.99;53.44;94365.75;5097902;28;20170;-91
2022/10/17 19:32:42;;;;;;;32.45;21.58;;;;;;;18.96;53.29;94364.00;5097887;28;20043;-91
2022/10/17 19:38:28;;;;;;;29.58;20.40;;;;;;;18.96;53.69;94364.00;5097474;28;20043;-91
2022/10/17 19:44:15;;;;;;;30.15;21.15;;;;;;;18.94;53.38;94366.47;5097057;28;20389;-91
2022/10/17 19:50:03;;;;;;;33.17;21.17;;;;;;;18.94;53.56;94363.72;5096714;28;20055;-90
2022/10/17 19:55:50;;;;;;;33.13;21.27;;;;;;;18.95;53.47;94361.75;5097507;28;20071;-91
2022/10/17 20:01:37;;;;;;;32.22;21.17;;;;;;;18.93;53.26;94364.97;5096968;28;20400;-91
2022/10/17 20:07:24;;;;;;;29.02;19.13;;;;;;;18.94;53.47;94368.47;5095846;28;20381;-91
2022/10/17 20:09:50;;;;;;;26.73;18.25;;;;;;;18.94;52.98;94360.25;5062842;28;20044;-91
2022/10/17 20:15:37;;;;;;;30.70;19.17;;;;;;;18.92;53.40;94368.19;5096423;28;20043;-91
2022/10/17 20:21:26;;;;;;;28.77;19.77;;;;;;;18.90;53.52;94354.97;5096127;28;20039;-91
2022/10/17 20:27:13;;;;;;;26.67;17.65;;;;;;;18.92;53.53;94362.72;5096603;28;20109;-90
2022/10/17 20:33:00;;;;;;;23.88;17.23;;;;;;;18.89;53.60;94364.44;5096640;28;20043;-91
2022/10/17 20:38:51;;;;;;;25.33;15.88;;;;;;;18.88;53.31;94370.41;5096339;28;20047;-90
2022/10/17 20:44:37;;;;;;;25.88;16.38;;;;;;;18.88;53.63;94370.41;5096307;28;20050;-91
2022/10/17 20:50:24;;;;;;;27.85;16.88;;;;;;;18.90;53.48;94389.84;5095586;28;20130;-91
2022/10/17 20:56:18;;;;;;;24.40;15.93;;;;;;;18.87;53.77;94377.13;5095355;28;20043;-90
2022/10/17 21:02:05;;;;;;;26.17;16.15;;;;;;;18.89;53.08;94383.63;5095570;28;20108;-91
2022/10/17 21:07:52;;;;;;;28.35;17.58;;;;;;;18.86;53.57;94392.81;5095401;28;20039;-91
2022/10/17 21:10:18;;;;;;;24.85;16.05;;;;;;;18.87;53.71;94385.34;5060681;28;20040;-91
2022/10/17 21:16:09;;;;;;;26.10;16.75;;;;;;;18.87;53.70;94385.34;5095698;28;20071;-91
2022/10/17 21:21:57;;;;;;;22.48;15.88;;;;;;;18.83;53.27;94382.88;5095831;28;20087;-91
2022/10/17 21:27:44;;;;;;;24.70;16.02;;;;;;;18.84;53.80;94403.50;5094636;28;20047;-92
2022/10/17 21:33:30;;;;;;;19.85;13.82;;;;;;;18.85;53.47;94394.06;5095072;28;20039;-90
2022/10/17 21:39:18;;;;;;;21.95;14.00;;;;;;;18.86;53.59;94386.59;5094808;28;20043;-91
2022/10/17 21:45:05;;;;;;;22.83;13.88;;;;;;;18.84;53.73;94390.56;5094987;28;20482;-91
2022/10/17 21:50:57;;;;;;;19.88;13.85;;;;;;;18.82;53.66;94392.31;5095289;28;20097;-92
2022/10/17 21:56:44;;;;;;;22.52;14.05;;;;;;;18.82;53.61;94386.84;5095380;28;20043;-91
2022/10/17 22:02:31;;;;;;;21.85;14.02;;;;;;;18.82;53.90;94389.59;5094742;28;20467;-91
2022/10/17 22:08:18;;;;;;;20.20;13.77;;;;;;;18.82;53.35;94379.38;5083025;28;20060;-91
2022/10/17 22:10:43;;;;;;;19.15;13.40;;;;;;;18.82;53.44;94378.63;5039892;28;20044;-91
2022/10/17 22:16:31;;;;;;;20.58;14.00;;;;;;;18.80;53.71;94379.09;5074457;28;20086;-91
2022/10/17 22:22:18;;;;;;;16.65;11.90;;;;;;;18.81;53.61;94377.13;5073854;28;20097;-91
2022/10/17 22:28:05;;;;;;;20.33;12.52;;;;;;;18.81;53.41;94377.88;5073733;28;20406;-91
2022/10/17 22:33:52;;;;;;;16.50;12.85;;;;;;;18.79;53.59;94372.13;5074486;28;20116;-91
2022/10/17 22:39:39;;;;;;;17.85;12.25;;;;;;;18.80;53.35;94365.41;5073997;28;20047;-91
2022/10/17 22:45:26;;;;;;;;;;;;;;;18.81;53.59;94369.66;5074082;28;20086;-90
2022/10/17 22:51:13;;;;;;;17.40;11.02;;;;;;;18.79;53.56;94371.38;5073778;28;20286;-92
2022/10/17 22:57:00;;;;;;;20.25;12.32;;;;;;;18.78;53.48;94375.34;5073851;28;20102;-91
2022/10/17 23:02:47;;;;;;;15.80;11.02;;;;;;;18.78;53.80;94373.38;5073895;28;20128;-91
2022/10/17 23:08:34;;;;;;;16.17;11.20;;;;;;;18.78;53.57;94361.66;5085495;28;20085;-91
2022/10/17 23:10:59;;;;;;;15.00;11.43;;;;;;;18.78;53.68;94364.41;5058930;28;20048;-91
2022/10/17 23:16:46;;;;;;;18.42;11.45;;;;;;;18.77;53.66;94371.88;5093916;28;20070;-91
2022/10/17 23:22:33;;;;;;;14.88;10.45;;;;;;;18.76;53.63;94367.63;5093975;28;20157;-91
2022/10/17 23:28:20;;;;;;;15.57;10.80;;;;;;;18.77;53.40;94374.59;5093724;28;20052;-91
2022/10/17 23:34:07;;;;;;;14.25;9.85;;;;;;;18.76;53.30;94367.63;5093616;28;20111;-90
2022/10/17 23:39:55;;;;;;;14.45;10.02;;;;;;;18.76;53.84;94358.66;5093913;28;20106;-91
2022/10/17 23:45:41;;;;;;;15.40;10.15;;;;;;;18.76;53.38;94361.41;5094103;28;20044;-91
2022/10/17 23:51:29;;;;;;;16.80;11.70;;;;;;;18.76;53.61;94348.44;5094851;28;20039;-91
2022/10/17 23:57:16;;;;;;;13.57;9.68;;;;;;;18.75;53.42;94355.16;5096680;28;20089;-91
